createdAt,value
2022-08-22T00:00:43.883Z,4.38
2022-08-22T00:02:49.632Z,4.78
2022-08-22T00:02:54.352Z,4.72
2022-08-22T00:03:11.472Z,4.57
2022-08-22T00:05:52.942Z,4.22
2022-08-22T00:08:24.260Z,4.15
2022-08-22T00:10:55.216Z,4.00
2022-08-22T00:13:28.312Z,4.15
2022-08-22T00:16:03.050Z,4.18
2022-08-22T00:18:33.089Z,3.83
2022-08-22T00:21:06.446Z,4.45
2022-08-22T00:23:37.088Z,4.47
2022-08-22T00:28:35.036Z,4.03
2022-08-22T00:31:09.750Z,3.95
2022-08-22T00:33:42.035Z,4.20
2022-08-22T00:36:16.204Z,3.90
2022-08-22T00:38:45.923Z,3.53
2022-08-22T00:41:20.412Z,3.72
2022-08-22T00:44:08.974Z,4.57
2022-08-22T00:46:58.733Z,4.68
2022-08-22T00:49:38.833Z,3.92
2022-08-22T00:52:18.862Z,3.97
2022-08-22T00:54:54.158Z,3.80
2022-08-22T00:57:30.271Z,3.53
2022-08-22T01:00:11.208Z,3.90
2022-08-22T01:02:52.583Z,3.67
2022-08-22T01:05:28.767Z,4.45
2022-08-22T01:08:03.319Z,3.50
2022-08-22T01:10:36.546Z,3.33
2022-08-22T01:13:12.871Z,3.53
2022-08-22T01:15:42.346Z,3.67
2022-08-22T01:18:23.172Z,3.92
2022-08-22T01:21:15.509Z,4.28
2022-08-22T01:24:06.855Z,4.03
2022-08-22T01:26:44.716Z,4.13
2022-08-22T01:29:28.344Z,3.83
2022-08-22T01:34:49.961Z,4.13
2022-08-22T01:37:29.066Z,4.18
2022-08-22T01:40:12.406Z,4.80
2022-08-22T01:42:50.476Z,4.30
2022-08-22T01:45:29.354Z,4.13
2022-08-22T01:48:00.107Z,3.80
2022-08-22T01:50:32.388Z,4.10
2022-08-22T01:53:02.413Z,4.10
2022-08-22T01:55:32.816Z,3.83
2022-08-22T01:58:03.821Z,3.80
2022-08-22T02:00:35.262Z,3.65
2022-08-22T02:03:15.522Z,3.97
2022-08-22T02:05:51.030Z,4.03
2022-08-22T02:08:23.971Z,3.83
2022-08-22T02:10:57.007Z,3.97
2022-08-22T02:13:31.608Z,3.85
2022-08-22T02:16:04.643Z,3.85
2022-08-22T02:18:41.171Z,3.85
2022-08-22T02:21:14.252Z,4.63
2022-08-22T02:23:48.031Z,4.20
2022-08-22T02:26:16.911Z,3.97
2022-08-22T02:28:57.491Z,4.10
2022-08-22T02:31:33.994Z,4.22
2022-08-22T02:34:03.043Z,3.90
2022-08-22T02:36:33.949Z,4.20
2022-08-22T02:39:05.945Z,4.35
2022-08-22T02:41:36.468Z,4.00
2022-08-22T02:44:06.054Z,3.92
2022-08-22T02:46:41.350Z,3.97
2022-08-22T02:49:12.966Z,4.18
2022-08-22T02:51:47.167Z,3.67
2022-08-22T02:54:17.210Z,3.53
2022-08-22T02:56:46.695Z,3.72
2022-08-22T02:59:16.465Z,4.03
2022-08-22T03:01:45.626Z,4.20
2022-08-22T03:04:18.992Z,3.92
2022-08-22T03:07:01.054Z,3.70
2022-08-22T03:09:31.296Z,4.22
2022-08-22T03:12:02.389Z,4.07
2022-08-22T03:14:33.070Z,4.13
2022-08-22T03:17:04.497Z,4.90
2022-08-22T03:19:44.759Z,4.20
2022-08-22T03:22:16.831Z,3.97
2022-08-22T03:24:48.812Z,4.20
2022-08-22T03:27:32.200Z,4.13
2022-08-22T03:30:02.460Z,3.90
2022-08-22T03:32:44.744Z,4.22
2022-08-22T03:35:23.124Z,4.10
2022-08-22T03:37:53.614Z,4.05
2022-08-22T03:40:34.095Z,3.75
2022-08-22T03:43:09.375Z,4.32
2022-08-22T03:45:48.327Z,3.92
2022-08-22T03:48:42.439Z,4.18
2022-08-22T03:51:34.016Z,3.88
2022-08-22T03:54:24.621Z,3.95
2022-08-22T03:57:11.400Z,3.85
2022-08-22T03:59:53.732Z,3.70
2022-08-22T04:02:43.183Z,3.40
2022-08-22T04:07:59.475Z,3.85
2022-08-22T04:10:50.976Z,3.50
2022-08-22T04:13:36.419Z,4.65
2022-08-22T04:16:11.622Z,3.70
2022-08-22T04:18:53.343Z,3.67
2022-08-22T04:21:35.332Z,3.65
2022-08-22T04:24:20.191Z,4.15
2022-08-22T04:26:52.318Z,3.58
2022-08-22T04:29:22.342Z,3.03
2022-08-22T04:31:52.793Z,3.53
2022-08-22T04:34:23.511Z,3.63
2022-08-22T04:39:21.091Z,3.17
2022-08-22T04:41:51.326Z,3.53
2022-08-22T04:44:23.720Z,2.92
2022-08-22T04:46:53.656Z,3.28
2022-08-22T04:49:24.453Z,3.75
2022-08-22T04:51:55.039Z,3.22
2022-08-22T04:54:31.966Z,3.38
2022-08-22T04:57:08.918Z,3.20
2022-08-22T04:59:36.835Z,2.95
2022-08-22T05:02:06.553Z,3.38
2022-08-22T05:04:37.891Z,2.95
2022-08-22T05:07:07.090Z,3.40
2022-08-22T05:09:35.945Z,3.17
2022-08-22T05:12:09.181Z,3.35
2022-08-22T05:14:39.477Z,3.65
2022-08-22T05:17:08.291Z,3.28
2022-08-22T05:19:40.019Z,2.97
2022-08-22T05:22:10.927Z,3.45
2022-08-22T05:24:40.115Z,3.50
2022-08-22T05:27:12.332Z,3.60
2022-08-22T05:29:40.897Z,3.80
2022-08-22T05:32:12.752Z,3.75
2022-08-22T05:34:41.776Z,4.13
2022-08-22T05:37:11.538Z,3.55
2022-08-22T05:39:39.818Z,4.38
2022-08-22T05:42:12.964Z,3.30
2022-08-22T05:44:42.395Z,3.58
2022-08-22T05:47:18.902Z,3.42
2022-08-22T05:49:53.230Z,3.15
2022-08-22T05:52:25.391Z,3.63
2022-08-22T05:54:58.014Z,3.42
2022-08-22T05:57:28.834Z,3.67
2022-08-22T06:00:01.632Z,3.72
2022-08-22T06:02:39.087Z,3.33
2022-08-22T06:05:11.753Z,3.42
2022-08-22T06:07:43.067Z,3.55
2022-08-22T06:10:17.748Z,3.38
2022-08-22T06:12:49.226Z,3.63
2022-08-22T06:15:20.944Z,3.08
2022-08-22T06:17:49.730Z,3.65
2022-08-22T06:20:19.170Z,3.25
2022-08-22T06:22:51.572Z,3.35
2022-08-22T06:25:21.980Z,3.30
2022-08-22T06:30:18.922Z,3.80
2022-08-22T06:33:00.088Z,2.97
2022-08-22T06:35:29.818Z,3.40
2022-08-22T06:37:58.986Z,2.83
2022-08-22T06:40:28.267Z,2.65
2022-08-22T06:42:56.528Z,3.22
2022-08-22T06:45:27.327Z,3.22
2022-08-22T06:48:00.578Z,3.30
2022-08-22T06:50:31.043Z,3.22
2022-08-22T06:53:01.349Z,3.20
2022-08-22T06:57:57.785Z,2.40
2022-08-22T07:00:27.583Z,2.88
2022-08-22T07:02:56.498Z,2.75
2022-08-22T07:05:25.908Z,2.70
2022-08-22T07:07:53.666Z,3.13
2022-08-22T07:10:22.565Z,2.70
2022-08-22T07:12:52.295Z,3.08
2022-08-22T07:15:21.147Z,2.80
2022-08-22T07:17:51.488Z,2.80
2022-08-22T07:20:24.626Z,2.53
2022-08-22T07:22:54.252Z,2.70
2022-08-22T07:25:21.875Z,2.22
2022-08-22T07:27:55.227Z,2.65
2022-08-22T07:30:27.549Z,2.50
2022-08-22T07:32:58.925Z,2.92
2022-08-22T07:35:53.414Z,2.30
2022-08-22T07:38:25.970Z,2.20
2022-08-22T07:40:58.736Z,2.42
2022-08-22T07:43:29.575Z,1.75
2022-08-22T07:45:59.648Z,2.25
2022-08-22T07:48:30.836Z,2.13
2022-08-22T07:51:01.428Z,1.80
2022-08-22T07:53:35.901Z,2.00
2022-08-22T07:56:05.129Z,1.98
2022-08-22T07:58:34.849Z,1.55
2022-08-22T08:01:02.780Z,1.70
2022-08-22T08:03:32.314Z,1.50
2022-08-22T08:06:00.926Z,1.75
2022-08-22T08:08:32.419Z,1.70
2022-08-22T08:11:00.901Z,1.70
2022-08-22T08:13:31.267Z,1.80
2022-08-22T08:15:59.781Z,1.50
2022-08-22T08:18:29.305Z,1.67
2022-08-22T08:20:59.699Z,1.40
2022-08-22T08:23:29.934Z,1.50
2022-08-22T08:28:36.335Z,1.30
2022-08-22T08:31:08.512Z,1.40
2022-08-22T08:33:37.609Z,1.40
2022-08-22T08:36:09.905Z,1.67
2022-08-22T08:38:40.939Z,1.15
2022-08-22T08:41:22.600Z,1.27
2022-08-22T08:43:54.351Z,1.30
2022-08-22T08:46:35.617Z,1.13
2022-08-22T08:49:21.043Z,1.08
2022-08-22T08:52:08.502Z,1.50
2022-08-22T08:54:55.619Z,1.05
2022-08-22T08:57:34.238Z,1.40
2022-08-22T09:00:04.261Z,1.20
2022-08-22T09:02:47.842Z,1.30
2022-08-22T09:05:26.977Z,1.00
2022-08-22T09:08:16.895Z,1.05
2022-08-22T09:11:14.310Z,1.02
2022-08-22T09:13:51.895Z,1.40
2022-08-22T09:16:28.601Z,1.08
2022-08-22T09:19:14.192Z,1.30
2022-08-22T09:22:02.627Z,1.30
2022-08-22T09:24:44.669Z,1.23
2022-08-22T09:27:15.374Z,1.23
2022-08-22T09:32:45.000Z,1.42
2022-08-22T09:35:17.405Z,1.13
2022-08-22T09:37:58.813Z,1.20
2022-08-22T09:40:29.172Z,1.33
2022-08-22T09:43:02.364Z,1.15
2022-08-22T09:45:48.787Z,1.27
2022-08-22T09:48:35.446Z,1.40
2022-08-22T09:51:28.634Z,1.13
2022-08-22T09:54:07.528Z,1.27
2022-08-22T09:56:38.253Z,1.20
2022-08-22T09:59:09.867Z,1.42
2022-08-22T10:01:42.217Z,1.63
2022-08-22T10:04:28.021Z,1.17
2022-08-22T10:07:02.882Z,1.25
2022-08-22T10:09:33.647Z,1.38
2022-08-22T10:12:03.551Z,1.30
2022-08-22T10:17:03.543Z,1.20
2022-08-22T10:19:32.812Z,1.35
2022-08-22T10:22:18.754Z,1.23
2022-08-22T10:24:52.599Z,1.13
2022-08-22T10:27:21.597Z,1.10
2022-08-22T10:30:02.500Z,1.15
2022-08-22T10:32:34.375Z,1.30
2022-08-22T10:35:07.957Z,1.00
2022-08-22T10:37:37.653Z,1.00
2022-08-22T10:40:13.095Z,1.20
2022-08-22T10:42:43.082Z,1.20
2022-08-22T10:45:35.092Z,1.30
2022-08-22T10:48:31.690Z,1.08
2022-08-22T10:51:09.902Z,1.10
2022-08-22T10:53:52.959Z,1.30
2022-08-22T10:56:27.376Z,1.15
2022-08-22T10:58:59.843Z,1.20
2022-08-22T11:01:38.539Z,1.10
2022-08-22T11:04:12.703Z,1.10
2022-08-22T11:06:44.825Z,1.15
2022-08-22T11:09:20.055Z,1.05
2022-08-22T11:11:54.135Z,1.00
2022-08-22T11:14:39.282Z,1.05
2022-08-22T11:17:28.267Z,1.15
2022-08-22T11:20:14.002Z,1.17
2022-08-22T11:22:46.089Z,1.13
2022-08-22T11:25:38.748Z,1.38
2022-08-22T11:28:28.842Z,1.15
2022-08-22T11:31:03.471Z,1.23
2022-08-22T11:33:47.268Z,1.17
2022-08-22T11:36:27.801Z,1.15
2022-08-22T11:39:02.466Z,1.23
2022-08-22T11:41:32.334Z,1.20
2022-08-22T11:46:31.144Z,1.42
2022-08-22T11:49:27.242Z,1.05
2022-08-22T11:51:59.603Z,1.30
2022-08-22T11:54:33.025Z,1.38
2022-08-22T11:57:04.728Z,1.00
2022-08-22T11:59:41.054Z,1.15
2022-08-22T12:02:17.503Z,2.20
2022-08-22T12:07:16.683Z,1.20
2022-08-22T12:12:26.526Z,1.25
2022-08-22T12:15:03.072Z,1.02
2022-08-22T12:17:55.221Z,1.08
2022-08-22T12:20:49.958Z,1.02
2022-08-22T12:23:48.598Z,1.20
2022-08-22T12:26:22.069Z,1.15
2022-08-22T12:29:02.647Z,1.23
2022-08-22T12:31:37.169Z,1.30
2022-08-22T12:34:14.330Z,1.20
2022-08-22T12:37:05.816Z,1.35
2022-08-22T12:40:03.222Z,0.80
2022-08-22T12:42:37.238Z,0.93
2022-08-22T12:45:17.690Z,1.13
2022-08-22T12:47:52.043Z,0.93
2022-08-22T12:50:28.071Z,1.60
2022-08-22T12:53:07.601Z,1.20
2022-08-22T12:55:41.836Z,0.95
2022-08-22T12:58:12.991Z,1.08
2022-08-22T13:00:44.588Z,1.05
2022-08-22T13:03:14.779Z,1.33
2022-08-22T13:05:46.228Z,1.05
2022-08-22T13:08:29.027Z,1.20
2022-08-22T13:10:59.477Z,1.05
2022-08-22T13:13:31.406Z,1.20
2022-08-22T13:16:00.985Z,0.93
2022-08-22T13:18:31.816Z,1.23
2022-08-22T13:21:06.040Z,0.93
2022-08-22T13:23:39.990Z,1.02
2022-08-22T13:26:11.550Z,1.10
2022-08-22T13:28:45.955Z,1.10
2022-08-22T13:31:21.015Z,1.00
2022-08-22T13:33:49.182Z,1.20
2022-08-22T13:36:19.818Z,1.17
2022-08-22T13:38:50.117Z,1.10
2022-08-22T13:41:21.596Z,0.98
2022-08-22T13:44:12.556Z,0.88
2022-08-22T13:46:58.176Z,1.00
2022-08-22T13:49:32.567Z,1.13
2022-08-22T13:52:08.341Z,1.25
2022-08-22T13:54:56.794Z,1.02
2022-08-22T13:57:26.746Z,0.85
2022-08-22T14:00:06.418Z,1.00
2022-08-22T14:02:43.369Z,1.00
2022-08-22T14:05:12.969Z,1.10
2022-08-22T14:07:44.423Z,1.10
2022-08-22T14:10:15.511Z,1.10
2022-08-22T14:12:50.492Z,0.93
2022-08-22T14:15:20.494Z,1.20
2022-08-22T14:17:49.310Z,1.05
2022-08-22T14:20:32.238Z,1.10
2022-08-22T14:23:04.831Z,1.33
2022-08-22T14:25:36.001Z,1.30
2022-08-22T14:28:06.530Z,1.00
2022-08-22T14:30:39.046Z,1.88
2022-08-22T14:33:09.679Z,1.30
2022-08-22T14:35:38.815Z,1.05
2022-08-22T14:38:17.859Z,1.20
2022-08-22T14:40:45.914Z,0.90
2022-08-22T14:43:22.480Z,1.10
2022-08-22T14:45:55.811Z,1.10
2022-08-22T14:48:31.620Z,1.00
2022-08-22T14:51:03.919Z,1.48
2022-08-22T14:53:34.461Z,1.15
2022-08-22T14:56:03.616Z,1.25
2022-08-22T14:58:34.045Z,1.10
2022-08-22T15:01:10.353Z,1.08
2022-08-22T15:06:09.011Z,1.55
2022-08-22T15:08:42.279Z,1.17
2022-08-22T15:11:19.843Z,1.20
2022-08-22T15:13:52.268Z,1.30
2022-08-22T15:16:21.879Z,1.38
2022-08-22T15:18:51.607Z,1.10
2022-08-22T15:21:24.439Z,2.20
2022-08-22T15:23:55.500Z,1.42
2022-08-22T15:26:27.231Z,1.35
2022-08-22T15:28:57.510Z,1.05
2022-08-22T15:31:25.436Z,1.02
2022-08-22T15:34:05.577Z,1.25
2022-08-22T15:36:33.187Z,1.30
2022-08-22T15:39:16.583Z,0.95
2022-08-22T15:41:47.473Z,0.98
2022-08-22T15:44:32.216Z,1.15
2022-08-22T15:47:03.473Z,1.27
2022-08-22T15:49:31.895Z,2.10
2022-08-22T15:52:15.995Z,1.40
2022-08-22T15:55:06.125Z,1.10
2022-08-22T15:57:37.167Z,1.17
2022-08-22T16:00:12.212Z,1.13
2022-08-22T16:02:42.583Z,1.50
2022-08-22T16:05:21.701Z,0.95
2022-08-22T16:07:50.155Z,1.20
2022-08-22T16:10:30.138Z,0.85
2022-08-22T16:13:16.579Z,0.90
2022-08-22T16:15:58.520Z,0.93
2022-08-22T16:18:44.638Z,1.20
2022-08-22T16:21:12.514Z,1.00
2022-08-22T16:23:56.391Z,1.23
2022-08-22T16:26:24.753Z,1.20
2022-08-22T16:28:58.157Z,1.00
2022-08-22T16:31:28.387Z,1.08
2022-08-22T16:33:56.832Z,1.23
2022-08-22T16:36:39.358Z,1.27
2022-08-22T16:39:09.951Z,1.00
2022-08-22T16:41:40.215Z,1.27
2022-08-22T16:44:28.741Z,1.20
2022-08-22T16:47:08.982Z,1.08
2022-08-22T16:49:40.635Z,1.17
2022-08-22T16:52:27.009Z,1.40
2022-08-22T16:54:55.626Z,1.05
2022-08-22T16:57:25.306Z,1.80
2022-08-22T17:00:00.587Z,1.33
2022-08-22T17:02:38.866Z,1.23
2022-08-22T17:05:16.307Z,1.20
2022-08-22T17:07:49.970Z,1.10
2022-08-22T17:10:32.538Z,1.20
2022-08-22T17:13:06.880Z,1.60
2022-08-22T17:15:36.467Z,1.27
2022-08-22T17:18:14.158Z,1.20
2022-08-22T17:20:47.683Z,1.40
2022-08-22T17:23:21.854Z,1.30
2022-08-22T17:25:54.092Z,1.50
2022-08-22T17:28:34.419Z,2.75
2022-08-22T17:31:05.453Z,1.60
2022-08-22T17:33:51.654Z,1.27
2022-08-22T17:36:27.195Z,1.23
2022-08-22T17:39:00.525Z,1.40
2022-08-22T17:41:32.399Z,1.10
2022-08-22T17:44:03.917Z,1.30
2022-08-22T17:46:35.098Z,1.08
2022-08-22T17:49:10.642Z,1.27
2022-08-22T17:51:42.363Z,1.42
2022-08-22T17:54:15.741Z,1.30
2022-08-22T17:56:46.190Z,1.35
2022-08-22T17:59:20.971Z,1.30
2022-08-22T18:01:51.010Z,1.50
2022-08-22T18:04:24.141Z,1.25
2022-08-22T18:06:56.162Z,1.35
2022-08-22T18:09:28.918Z,1.83
2022-08-22T18:11:59.290Z,1.15
2022-08-22T18:14:30.767Z,0.95
2022-08-22T18:16:59.148Z,1.25
2022-08-22T18:19:40.918Z,1.40
2022-08-22T18:22:10.805Z,1.30
2022-08-22T18:24:43.983Z,1.42
2022-08-22T18:27:32.584Z,1.42
2022-08-22T18:30:06.125Z,1.27
2022-08-22T18:32:35.750Z,1.00
2022-08-22T18:35:07.088Z,1.33
2022-08-22T18:37:46.238Z,1.13
2022-08-22T18:40:25.923Z,1.27
2022-08-22T18:42:56.240Z,1.65
2022-08-22T18:45:44.076Z,1.20
2022-08-22T18:48:19.442Z,1.20
2022-08-22T18:50:48.610Z,1.38
2022-08-22T18:53:30.903Z,1.35
2022-08-22T18:56:01.443Z,1.25
2022-08-22T18:58:47.913Z,1.70
2022-08-22T19:01:32.003Z,1.58
2022-08-22T19:04:28.275Z,1.33
2022-08-22T19:07:16.726Z,1.50
2022-08-22T19:09:59.894Z,1.60
2022-08-22T19:12:36.825Z,1.73
2022-08-22T19:17:44.515Z,1.35
2022-08-22T19:20:46.149Z,1.27
2022-08-22T19:23:31.303Z,1.52
2022-08-22T19:26:17.634Z,1.40
2022-08-22T19:28:46.788Z,1.60
2022-08-22T19:31:22.511Z,1.52
2022-08-22T19:33:50.692Z,1.40
2022-08-22T19:36:36.130Z,1.45
2022-08-22T19:39:09.028Z,1.15
2022-08-22T19:41:41.150Z,1.38
2022-08-22T19:44:12.117Z,1.40
2022-08-22T19:46:41.080Z,1.67
2022-08-22T19:49:23.083Z,1.50
2022-08-22T19:52:01.208Z,1.42
2022-08-22T19:54:29.583Z,1.48
2022-08-22T19:57:03.276Z,1.52
2022-08-22T19:59:38.715Z,1.25
2022-08-22T20:02:17.602Z,1.50
2022-08-22T20:05:08.962Z,1.38
2022-08-22T20:07:44.295Z,2.00
2022-08-22T20:10:18.062Z,1.45
2022-08-22T20:12:59.320Z,1.50
2022-08-22T20:15:28.919Z,1.30
2022-08-22T20:18:12.148Z,1.42
2022-08-22T20:23:23.511Z,1.58
2022-08-22T20:25:53.343Z,1.38
2022-08-22T20:28:39.492Z,1.83
2022-08-22T20:31:12.182Z,1.50
2022-08-22T20:33:40.791Z,1.40
2022-08-22T20:36:18.631Z,1.42
2022-08-22T20:38:58.582Z,1.30
2022-08-22T20:41:27.894Z,1.70
2022-08-22T20:43:56.991Z,1.65
2022-08-22T20:46:32.761Z,1.52
2022-08-22T20:49:01.602Z,1.65
2022-08-22T20:51:30.183Z,1.67
2022-08-22T20:53:58.351Z,1.65
2022-08-22T20:56:32.759Z,1.52
2022-08-22T20:59:01.308Z,1.67
2022-08-22T21:01:31.710Z,1.80
2022-08-22T21:03:59.295Z,1.50
2022-08-22T21:06:30.780Z,1.80
2022-08-22T21:09:25.494Z,1.73
2022-08-22T21:11:52.945Z,1.75
2022-08-22T21:14:21.323Z,1.70
2022-08-22T21:16:50.560Z,1.58
2022-08-22T21:19:18.941Z,1.58
2022-08-22T21:21:46.399Z,1.50
2022-08-22T21:24:13.846Z,1.38
2022-08-22T21:26:47.278Z,1.80
2022-08-22T21:29:20.724Z,1.75
2022-08-22T21:31:50.170Z,1.42
2022-08-22T21:34:21.113Z,1.50
2022-08-22T21:36:51.050Z,1.80
2022-08-22T21:39:20.890Z,1.88
2022-08-22T21:41:49.975Z,1.60
2022-08-22T21:44:18.386Z,1.55
2022-08-22T21:46:46.180Z,1.48
2022-08-22T21:49:22.015Z,1.73
2022-08-22T21:51:50.285Z,1.60
2022-08-22T21:54:22.414Z,1.80
2022-08-22T21:56:51.350Z,1.65
2022-08-22T21:59:24.826Z,1.70
2022-08-22T22:01:52.699Z,1.75
2022-08-22T22:04:24.474Z,1.70
2022-08-22T22:06:51.906Z,1.60
2022-08-22T22:09:19.284Z,1.75
2022-08-22T22:11:46.888Z,1.70
2022-08-22T22:14:14.310Z,1.60
2022-08-22T22:16:41.726Z,2.17
2022-08-22T22:19:10.045Z,1.80
2022-08-22T22:21:39.477Z,1.70
2022-08-22T22:24:07.092Z,1.88
2022-08-22T22:26:34.561Z,2.35
2022-08-22T22:29:03.214Z,2.08
2022-08-22T22:31:31.582Z,1.77
2022-08-22T22:34:01.342Z,1.70
2022-08-22T22:36:29.023Z,2.00
2022-08-22T22:38:58.000Z,2.30
2022-08-22T22:41:25.987Z,2.47
2022-08-22T22:43:53.561Z,2.20
2022-08-22T22:46:21.039Z,1.90
2022-08-22T22:48:48.869Z,2.00
2022-08-22T22:51:16.354Z,2.13
2022-08-22T22:53:44.788Z,1.80
2022-08-22T22:56:14.690Z,2.15
2022-08-22T22:58:43.649Z,1.95
2022-08-22T23:01:13.528Z,2.33
2022-08-22T23:03:41.051Z,2.40
2022-08-22T23:06:11.309Z,2.10
2022-08-22T23:08:38.812Z,1.98
2022-08-22T23:11:09.811Z,2.15
2022-08-22T23:13:39.668Z,2.05
2022-08-22T23:16:11.267Z,2.33
2022-08-22T23:18:38.675Z,2.15
2022-08-22T23:21:13.184Z,2.30
2022-08-22T23:23:40.670Z,2.08
2022-08-22T23:26:08.406Z,2.13
2022-08-22T23:28:36.063Z,2.13
2022-08-22T23:31:12.291Z,2.03
2022-08-22T23:33:39.764Z,1.83
2022-08-22T23:36:11.487Z,2.25
2022-08-22T23:38:38.991Z,2.22
2022-08-22T23:41:09.775Z,2.22
2022-08-22T23:43:37.471Z,2.13
2022-08-22T23:46:05.109Z,2.00
2022-08-22T23:48:33.919Z,1.90
2022-08-22T23:51:01.544Z,2.00
2022-08-22T23:53:29.566Z,2.50
2022-08-22T23:55:57.004Z,2.10
2022-08-22T23:58:24.407Z,1.90
